Cotui, Dominican Republic
Current Conditions -  °F | °C
As of 8:00 PM on Saturday 22 Nov 2014 (Local Time) from MDCY Reporting Station
Moderate Rain Moderate Rain  
Wind Chill: 77°   Ceiling: Unl
Heat Index: 78°   Visibility: 5mi
Dew Point: 75°   Wind: 0mph
Humidity: 94%   Direction: NA
Pressure: 29.97"   Gusts: NA
Location:  19.06°N, 70.15°W
Report Text: MDCY 230000Z 00000KT 8000 VCRA FEW016CB SCT016 SCT070 25/24 Q1015 CB/NE/S/SW
Loading
Personal Weather Stations






























Interactive Weather Map New forecast layout! Learn more

10-Day Weather Forecast

Advertisements
Track Severe Weather on mobile